createdAt,value
2019-03-25T00:01:19.411Z,16.12
2019-03-25T00:03:59.931Z,17.75
2019-03-25T00:06:40.703Z,16.17
2019-03-25T00:09:21.443Z,16.55
2019-03-25T00:12:02.192Z,16.85
2019-03-25T00:14:43.211Z,20.20
2019-03-25T00:17:23.859Z,16.05
2019-03-25T00:20:04.830Z,18.40
2019-03-25T00:22:45.651Z,17.03
2019-03-25T00:25:29.534Z,20.30
2019-03-25T00:28:10.424Z,18.10
2019-03-25T00:30:51.725Z,19.23
2019-03-25T00:33:32.389Z,19.50
2019-03-25T00:36:13.160Z,18.90
2019-03-25T00:38:54.551Z,15.03
2019-03-25T00:41:35.607Z,17.82
2019-03-25T00:44:16.569Z,16.02
2019-03-25T00:46:57.420Z,17.37
2019-03-25T00:49:38.298Z,16.10
2019-03-25T00:52:19.563Z,15.68
2019-03-25T00:55:00.313Z,18.05
2019-03-25T00:57:41.527Z,13.57
2019-03-25T01:00:21.943Z,11.83
2019-03-25T01:03:02.320Z,13.83
2019-03-25T01:05:43.229Z,14.07
2019-03-25T01:08:23.719Z,11.45
2019-03-25T01:11:04.362Z,13.50
2019-03-25T01:13:45.011Z,12.98
2019-03-25T01:16:25.889Z,12.80
2019-03-25T01:19:06.499Z,13.08
2019-03-25T01:21:46.848Z,12.68
2019-03-25T01:24:27.580Z,15.68
2019-03-25T01:27:07.996Z,12.53
2019-03-25T01:29:48.263Z,12.85
2019-03-25T01:32:28.963Z,12.98
2019-03-25T01:35:09.452Z,11.65
2019-03-25T01:37:50.649Z,12.05
2019-03-25T01:40:31.348Z,10.93
2019-03-25T01:43:12.193Z,12.00
2019-03-25T01:45:53.337Z,10.70
2019-03-25T01:48:34.092Z,10.88
2019-03-25T01:51:14.732Z,10.78
2019-03-25T01:53:55.405Z,10.93
2019-03-25T01:56:36.064Z,12.35
2019-03-25T01:59:16.835Z,13.28
2019-03-25T02:01:58.169Z,11.75
2019-03-25T02:04:38.877Z,11.22
2019-03-25T02:07:19.575Z,13.72
2019-03-25T02:10:00.485Z,10.48
2019-03-25T02:12:41.952Z,12.40
2019-03-25T02:15:22.710Z,13.38
2019-03-25T02:18:03.349Z,14.00
2019-03-25T02:20:44.516Z,13.10
2019-03-25T02:23:24.891Z,12.43
2019-03-25T02:26:05.603Z,11.33
2019-03-25T02:28:46.048Z,13.55
2019-03-25T02:31:26.766Z,12.05
2019-03-25T02:34:07.537Z,11.88
2019-03-25T02:36:48.303Z,13.53
2019-03-25T02:39:28.647Z,11.00
2019-03-25T02:42:09.185Z,12.95
2019-03-25T02:44:50.117Z,14.35
2019-03-25T02:47:31.435Z,12.63
2019-03-25T02:50:11.935Z,13.43
2019-03-25T02:52:52.945Z,16.25
2019-03-25T02:55:41.446Z,10.95
2019-03-25T02:58:16.006Z,15.40
2019-03-25T03:00:56.651Z,13.90
2019-03-25T03:03:37.274Z,15.93
2019-03-25T03:06:17.817Z,12.70
2019-03-25T03:08:58.612Z,13.70
2019-03-25T03:11:38.973Z,14.47
2019-03-25T03:14:19.497Z,13.63
2019-03-25T03:16:59.898Z,16.10
2019-03-25T03:19:40.538Z,16.25
2019-03-25T03:22:20.982Z,15.77
2019-03-25T03:25:01.597Z,13.65
2019-03-25T03:27:42.614Z,16.60
2019-03-25T03:30:23.049Z,16.15
2019-03-25T03:33:03.507Z,14.57
2019-03-25T03:35:46.545Z,13.22
2019-03-25T03:38:26.911Z,15.25
2019-03-25T03:41:07.576Z,16.40
2019-03-25T03:43:48.257Z,12.70
2019-03-25T03:46:29.391Z,16.35
2019-03-25T03:49:10.279Z,15.37
2019-03-25T03:51:50.785Z,15.17
2019-03-25T03:54:31.924Z,13.58
2019-03-25T03:57:12.948Z,15.95
2019-03-25T03:59:53.304Z,16.37
2019-03-25T04:02:34.034Z,13.83
2019-03-25T04:05:14.700Z,13.95
2019-03-25T04:07:55.414Z,15.85
2019-03-25T04:10:36.157Z,13.45
2019-03-25T04:13:16.809Z,14.60
2019-03-25T04:16:01.222Z,16.85
2019-03-25T04:18:40.462Z,14.25
2019-03-25T04:21:21.141Z,16.57
2019-03-25T04:24:02.102Z,13.78
2019-03-25T04:26:42.814Z,14.78
2019-03-25T04:29:23.613Z,13.45
2019-03-25T04:32:06.154Z,16.73
2019-03-25T04:34:47.041Z,15.37
2019-03-25T04:37:28.091Z,15.90
2019-03-25T04:40:09.017Z,14.60
2019-03-25T04:42:49.761Z,14.43
2019-03-25T04:45:30.501Z,15.53
2019-03-25T04:48:11.261Z,13.43
2019-03-25T04:50:52.000Z,14.38
2019-03-25T04:53:32.675Z,14.80
2019-03-25T04:56:13.650Z,14.95
2019-03-25T04:58:54.054Z,17.02
2019-03-25T05:01:35.085Z,19.02
2019-03-25T05:04:16.313Z,15.98
2019-03-25T05:06:57.034Z,16.30
2019-03-25T05:09:37.933Z,17.82
2019-03-25T05:12:19.163Z,18.85
2019-03-25T05:14:59.788Z,16.45
2019-03-25T05:17:40.696Z,17.20
2019-03-25T05:20:21.559Z,19.23
2019-03-25T05:23:02.323Z,17.82
2019-03-25T05:25:43.080Z,16.37
2019-03-25T05:28:23.913Z,17.23
2019-03-25T05:31:04.779Z,17.30
2019-03-25T05:33:45.678Z,16.33
2019-03-25T05:36:26.808Z,19.40
2019-03-25T05:39:07.625Z,16.97
2019-03-25T05:41:37.074Z,20.27
2019-03-25T05:44:06.507Z,17.52
2019-03-25T05:46:35.828Z,18.17
2019-03-25T05:49:05.132Z,16.25
2019-03-25T05:51:34.421Z,17.57
2019-03-25T05:54:03.900Z,16.02
2019-03-25T05:56:33.479Z,16.70
2019-03-25T05:59:02.818Z,15.55
2019-03-25T06:01:32.207Z,18.07
2019-03-25T06:04:01.919Z,15.78
2019-03-25T06:06:31.585Z,20.27
2019-03-25T06:09:00.893Z,16.63
2019-03-25T06:11:30.245Z,15.45
2019-03-25T06:13:59.612Z,18.67
2019-03-25T06:16:29.214Z,19.92
2019-03-25T06:18:58.724Z,16.95
2019-03-25T06:21:28.094Z,17.15
2019-03-25T06:23:57.600Z,15.90
2019-03-25T06:26:26.990Z,15.35
2019-03-25T06:28:56.262Z,17.47
2019-03-25T06:31:25.577Z,16.70
2019-03-25T06:33:54.857Z,19.20
2019-03-25T06:36:24.274Z,16.80
2019-03-25T06:38:53.673Z,14.93
2019-03-25T06:41:22.989Z,15.97
2019-03-25T06:43:52.663Z,16.97
2019-03-25T06:46:22.369Z,14.90
2019-03-25T06:48:51.781Z,18.32
2019-03-25T06:51:21.359Z,14.95
2019-03-25T06:53:50.720Z,15.90
2019-03-25T06:56:20.055Z,15.48
2019-03-25T06:58:49.418Z,16.40
2019-03-25T07:01:18.724Z,16.23
2019-03-25T07:03:48.022Z,17.52
2019-03-25T07:06:17.451Z,17.77
2019-03-25T07:08:47.113Z,15.50
2019-03-25T07:11:16.777Z,15.28
2019-03-25T07:13:46.243Z,13.58
2019-03-25T07:16:15.653Z,15.70
2019-03-25T07:18:45.157Z,15.03
2019-03-25T07:21:14.620Z,16.27
2019-03-25T07:23:43.929Z,17.62
2019-03-25T07:26:13.258Z,14.95
2019-03-25T07:28:42.834Z,17.52
2019-03-25T07:31:12.192Z,15.98
2019-03-25T07:33:41.501Z,16.82
2019-03-25T07:36:10.822Z,18.57
2019-03-25T07:38:40.158Z,15.15
2019-03-25T07:41:09.528Z,17.73
2019-03-25T07:43:38.837Z,16.97
2019-03-25T07:46:08.218Z,15.63
2019-03-25T07:48:37.609Z,15.83
2019-03-25T07:51:06.953Z,18.37
2019-03-25T07:53:36.296Z,19.07
2019-03-25T07:56:05.681Z,16.52
2019-03-25T07:58:35.037Z,18.42
2019-03-25T08:01:04.584Z,15.85
2019-03-25T08:03:33.976Z,13.20
2019-03-25T08:06:03.303Z,18.17
2019-03-25T08:08:32.805Z,14.37
2019-03-25T08:11:02.158Z,16.80
2019-03-25T08:13:31.465Z,16.35
2019-03-25T08:16:03.382Z,15.45
2019-03-25T08:18:32.034Z,15.60
2019-03-25T08:21:01.613Z,15.18
2019-03-25T08:23:31.199Z,11.88
2019-03-25T08:26:00.478Z,11.53
2019-03-25T08:28:30.001Z,9.78
2019-03-25T08:30:59.370Z,10.68
2019-03-25T08:33:29.347Z,11.18
2019-03-25T08:35:58.761Z,10.38
2019-03-25T08:38:28.072Z,9.58
2019-03-25T08:40:57.418Z,10.25
2019-03-25T08:43:26.722Z,9.70
2019-03-25T08:45:56.665Z,8.85
2019-03-25T08:48:25.976Z,8.55
2019-03-25T08:50:55.288Z,8.20
2019-03-25T08:53:24.649Z,9.37
2019-03-25T08:55:53.968Z,8.25
2019-03-25T08:58:23.296Z,8.28
2019-03-25T09:00:52.660Z,8.00
2019-03-25T09:03:22.041Z,9.60
2019-03-25T09:05:51.695Z,9.23
2019-03-25T09:08:21.036Z,10.75
2019-03-25T09:10:50.819Z,9.90
2019-03-25T09:13:20.342Z,9.18
2019-03-25T09:15:49.693Z,8.68
2019-03-25T09:18:19.080Z,8.20
2019-03-25T09:20:48.381Z,10.65
2019-03-25T09:23:17.842Z,8.63
2019-03-25T09:25:47.161Z,10.82
2019-03-25T09:28:24.267Z,8.70
2019-03-25T09:31:14.180Z,9.18
2019-03-25T09:33:43.733Z,10.25
2019-03-25T09:36:13.369Z,8.33
2019-03-25T09:38:43.025Z,9.18
2019-03-25T09:41:12.477Z,9.57
2019-03-25T09:43:42.134Z,9.30
2019-03-25T09:46:11.592Z,7.37
2019-03-25T09:48:41.064Z,6.50
2019-03-25T09:51:10.504Z,7.28
2019-03-25T09:53:39.965Z,6.92
2019-03-25T09:56:09.734Z,7.17
2019-03-25T09:58:39.162Z,8.10
2019-03-25T10:01:08.601Z,7.20
2019-03-25T10:03:37.954Z,6.40
2019-03-25T10:06:07.402Z,8.75
2019-03-25T10:08:37.043Z,7.40
2019-03-25T10:11:06.671Z,8.10
2019-03-25T10:13:36.154Z,7.50
2019-03-25T10:16:05.825Z,8.53
2019-03-25T10:18:35.403Z,9.35
2019-03-25T10:21:04.856Z,9.03
2019-03-25T10:23:34.398Z,6.83
2019-03-25T10:26:03.883Z,10.20
2019-03-25T10:28:33.460Z,9.15
2019-03-25T10:31:02.842Z,8.37
2019-03-25T10:33:32.138Z,8.08
2019-03-25T10:36:01.694Z,8.05
2019-03-25T10:38:31.103Z,8.20
2019-03-25T10:41:00.758Z,8.30
2019-03-25T10:43:30.082Z,7.47
2019-03-25T10:46:01.456Z,6.47
2019-03-25T10:48:31.172Z,8.17
2019-03-25T10:51:00.745Z,6.33
2019-03-25T10:53:30.070Z,5.57
2019-03-25T10:55:59.470Z,7.40
2019-03-25T10:58:28.836Z,8.23
2019-03-25T11:00:58.367Z,6.55
2019-03-25T11:03:27.737Z,5.00
2019-03-25T11:05:57.124Z,4.08
2019-03-25T11:08:26.526Z,5.12
2019-03-25T11:10:55.880Z,6.28
2019-03-25T11:13:25.172Z,6.40
2019-03-25T11:15:54.584Z,6.77
2019-03-25T11:18:24.127Z,6.78
2019-03-25T11:20:53.970Z,7.60
2019-03-25T11:23:23.604Z,5.00
2019-03-25T11:25:52.964Z,6.67
2019-03-25T11:28:22.349Z,6.87
2019-03-25T11:30:56.819Z,5.70
2019-03-25T11:33:26.401Z,5.92
2019-03-25T11:35:55.909Z,4.87
2019-03-25T11:38:25.460Z,4.87
2019-03-25T11:40:54.885Z,6.17
2019-03-25T11:43:24.261Z,7.92
2019-03-25T11:45:54.255Z,6.47
2019-03-25T11:48:23.650Z,3.20
2019-03-25T11:50:53.188Z,3.22
2019-03-25T11:53:22.654Z,4.05
2019-03-25T11:55:52.101Z,4.27
2019-03-25T11:58:21.581Z,3.77
2019-03-25T12:00:50.932Z,4.62
2019-03-25T12:03:20.304Z,5.67
2019-03-25T12:05:49.696Z,5.10
2019-03-25T12:08:19.073Z,5.87
2019-03-25T12:10:48.545Z,7.70
2019-03-25T12:13:18.103Z,6.67
2019-03-25T12:15:47.454Z,8.20
2019-03-25T12:18:16.788Z,10.10
2019-03-25T12:20:46.440Z,8.03
2019-03-25T12:23:25.766Z,9.38
2019-03-25T12:25:46.938Z,8.18
2019-03-25T12:28:20.730Z,8.03
2019-03-25T12:30:47.520Z,8.63
2019-03-25T12:33:16.940Z,7.78
2019-03-25T12:35:46.392Z,8.80
2019-03-25T12:38:15.700Z,9.23
2019-03-25T12:40:45.048Z,9.65
2019-03-25T12:43:14.461Z,9.05
2019-03-25T12:45:43.905Z,9.00
2019-03-25T12:48:13.441Z,9.35
2019-03-25T12:50:42.963Z,9.25
2019-03-25T12:53:12.564Z,7.83
2019-03-25T12:55:42.017Z,7.12
2019-03-25T12:58:11.425Z,5.05
2019-03-25T13:00:42.105Z,4.62
2019-03-25T13:03:11.391Z,5.53
2019-03-25T13:05:40.939Z,4.50
2019-03-25T13:08:10.298Z,5.78
2019-03-25T13:10:39.689Z,5.50
2019-03-25T13:13:09.155Z,5.95
2019-03-25T13:15:38.537Z,5.40
2019-03-25T13:18:07.921Z,5.37
2019-03-25T13:20:37.241Z,6.40
2019-03-25T13:23:06.606Z,5.53
2019-03-25T13:25:39.499Z,5.90
2019-03-25T13:28:09.410Z,6.80
2019-03-25T13:30:38.812Z,8.00
2019-03-25T13:33:08.368Z,5.90
2019-03-25T13:35:37.925Z,6.72
2019-03-25T13:38:07.247Z,7.85
2019-03-25T13:40:36.894Z,5.72
2019-03-25T13:43:06.301Z,4.28
2019-03-25T13:45:35.620Z,3.30
2019-03-25T13:48:04.929Z,2.77
2019-03-25T13:50:34.229Z,3.33
2019-03-25T13:53:03.610Z,3.45
2019-03-25T13:55:32.982Z,3.03
2019-03-25T13:58:02.286Z,2.95
2019-03-25T14:00:39.238Z,3.22
2019-03-25T14:03:08.730Z,4.37
2019-03-25T14:05:38.752Z,3.27
2019-03-25T14:08:08.885Z,4.90
2019-03-25T14:10:38.782Z,5.25
2019-03-25T14:13:08.269Z,3.50
2019-03-25T14:15:37.675Z,4.62
2019-03-25T14:18:07.115Z,4.67
2019-03-25T14:20:36.917Z,3.72
2019-03-25T14:23:06.617Z,4.70
2019-03-25T14:25:36.002Z,2.45
2019-03-25T14:28:05.360Z,2.13
2019-03-25T14:30:34.781Z,2.08
2019-03-25T14:33:04.130Z,3.17
2019-03-25T14:35:33.488Z,5.53
2019-03-25T14:38:02.905Z,3.72
2019-03-25T14:40:32.289Z,4.15
2019-03-25T14:43:02.008Z,3.58
2019-03-25T14:45:31.321Z,3.27
2019-03-25T14:48:00.853Z,3.83
2019-03-25T14:50:30.233Z,3.15
2019-03-25T14:52:59.615Z,2.75
2019-03-25T14:55:29.094Z,3.00
2019-03-25T14:57:58.536Z,3.70
2019-03-25T15:00:28.118Z,4.12
2019-03-25T15:02:57.570Z,3.52
2019-03-25T15:05:27.051Z,4.78
2019-03-25T15:07:56.441Z,2.83
2019-03-25T15:10:25.770Z,5.55
2019-03-25T15:12:55.336Z,3.72
2019-03-25T15:15:24.748Z,5.03
2019-03-25T15:17:54.169Z,5.75
2019-03-25T15:20:23.616Z,5.45
2019-03-25T15:22:52.942Z,4.45
2019-03-25T15:25:22.421Z,5.10
2019-03-25T15:27:52.130Z,5.37
2019-03-25T15:30:21.792Z,5.83
2019-03-25T15:32:51.190Z,6.40
2019-03-25T15:35:20.704Z,6.47
2019-03-25T15:37:49.988Z,5.03
2019-03-25T15:40:19.738Z,5.70
2019-03-25T15:42:49.033Z,5.55
2019-03-25T15:45:18.700Z,5.50
2019-03-25T15:47:48.574Z,4.78
2019-03-25T15:50:19.166Z,6.42
2019-03-25T15:52:48.736Z,6.00
2019-03-25T15:55:18.908Z,5.45
2019-03-25T15:57:48.240Z,4.75
2019-03-25T16:00:19.566Z,4.00
2019-03-25T16:02:48.924Z,3.55
2019-03-25T16:05:18.350Z,4.28
2019-03-25T16:07:47.823Z,3.83
2019-03-25T16:10:17.633Z,3.75
2019-03-25T16:12:47.417Z,3.15
2019-03-25T16:15:35.457Z,2.90
2019-03-25T16:18:05.434Z,3.27
2019-03-25T16:20:35.097Z,3.37
2019-03-25T16:23:04.461Z,3.50
2019-03-25T16:25:33.759Z,4.55
2019-03-25T16:28:03.326Z,4.00
2019-03-25T16:30:32.822Z,3.95
2019-03-25T16:33:02.721Z,3.15
2019-03-25T16:35:32.071Z,4.20
2019-03-25T16:38:01.432Z,4.70
2019-03-25T16:40:30.726Z,5.80
2019-03-25T16:43:00.171Z,2.98
2019-03-25T16:45:29.498Z,2.80
2019-03-25T16:47:59.127Z,2.50
2019-03-25T16:50:28.952Z,3.30
2019-03-25T16:52:58.285Z,2.72
2019-03-25T16:55:29.959Z,3.02
2019-03-25T16:57:59.619Z,3.20
2019-03-25T17:00:29.592Z,3.27
2019-03-25T17:02:59.329Z,3.62
2019-03-25T17:05:28.697Z,3.98
2019-03-25T17:07:58.361Z,3.77
2019-03-25T17:10:28.362Z,4.72
2019-03-25T17:12:58.008Z,4.45
2019-03-25T17:15:27.392Z,4.00
2019-03-25T17:17:56.904Z,4.70
2019-03-25T17:20:26.748Z,5.10
2019-03-25T17:22:56.097Z,5.93
2019-03-25T17:25:25.465Z,5.25
2019-03-25T17:27:54.757Z,5.42
2019-03-25T17:30:24.128Z,6.28
2019-03-25T17:32:53.601Z,6.08
2019-03-25T17:35:22.901Z,5.80
2019-03-25T17:37:52.231Z,5.97
2019-03-25T17:40:21.693Z,6.12
2019-03-25T17:43:10.060Z,6.10
2019-03-25T17:45:58.604Z,7.17
2019-03-25T17:48:46.916Z,6.15
2019-03-25T17:51:35.155Z,6.62
2019-03-25T17:54:23.400Z,7.85
2019-03-25T17:57:03.929Z,6.97
2019-03-25T17:59:33.671Z,7.87
2019-03-25T18:02:22.354Z,9.00
2019-03-25T18:05:11.082Z,8.63
2019-03-25T18:07:59.849Z,9.00
2019-03-25T18:10:48.585Z,6.92
2019-03-25T18:13:37.447Z,6.30
2019-03-25T18:16:25.725Z,4.43
2019-03-25T18:19:14.318Z,4.55
2019-03-25T18:22:02.749Z,3.25
2019-03-25T18:24:50.999Z,3.85
2019-03-25T18:27:39.548Z,3.47
2019-03-25T18:30:31.532Z,2.92
2019-03-25T18:33:20.092Z,3.20
2019-03-25T18:36:08.664Z,3.30
2019-03-25T18:38:56.922Z,3.87
2019-03-25T18:41:45.251Z,4.12
2019-03-25T18:44:33.852Z,4.55
2019-03-25T18:47:22.376Z,5.95
2019-03-25T18:50:10.799Z,6.55
2019-03-25T18:52:59.024Z,5.20
2019-03-25T18:56:06.532Z,6.08
2019-03-25T18:58:47.055Z,6.80
2019-03-25T19:01:27.766Z,7.92
2019-03-25T19:04:08.794Z,14.18
2019-03-25T19:06:49.611Z,10.18
2019-03-25T19:09:30.298Z,12.90
2019-03-25T19:12:10.989Z,9.13
2019-03-25T19:14:52.161Z,7.30
2019-03-25T19:17:32.970Z,7.67
2019-03-25T19:20:13.668Z,8.20
2019-03-25T19:22:54.708Z,8.73
2019-03-25T19:25:35.424Z,7.83
2019-03-25T19:28:16.126Z,9.85
2019-03-25T19:30:56.831Z,9.63
2019-03-25T19:33:37.450Z,10.75
2019-03-25T19:36:18.316Z,10.70
2019-03-25T19:39:00.987Z,11.10
2019-03-25T19:41:41.322Z,9.90
2019-03-25T19:44:22.288Z,10.65
2019-03-25T19:47:03.120Z,11.57
2019-03-25T19:49:43.941Z,11.43
2019-03-25T19:52:24.845Z,10.70
2019-03-25T19:55:05.692Z,12.65
2019-03-25T19:57:46.739Z,13.97
2019-03-25T20:00:27.594Z,14.30
2019-03-25T20:03:08.221Z,13.33
2019-03-25T20:05:48.983Z,12.85
2019-03-25T20:08:29.829Z,12.85
2019-03-25T20:11:10.553Z,13.32
2019-03-25T20:13:51.180Z,14.58
2019-03-25T20:16:32.430Z,16.77
2019-03-25T20:19:13.050Z,13.62
2019-03-25T20:21:53.677Z,15.83
2019-03-25T20:24:34.003Z,13.38
2019-03-25T20:27:15.021Z,13.60
2019-03-25T20:29:55.740Z,16.80
2019-03-25T20:32:36.781Z,12.35
2019-03-25T20:35:17.501Z,11.93
2019-03-25T20:37:57.937Z,10.63
2019-03-25T20:40:38.875Z,11.85
2019-03-25T20:43:19.560Z,10.38
2019-03-25T20:46:03.460Z,10.35
2019-03-25T20:48:44.192Z,11.20
2019-03-25T20:51:24.967Z,10.13
2019-03-25T20:54:06.122Z,10.72
2019-03-25T20:56:46.393Z,10.17
2019-03-25T20:59:26.945Z,10.60
2019-03-25T21:02:07.707Z,10.23
2019-03-25T21:04:48.424Z,10.80
2019-03-25T21:07:29.463Z,10.30
2019-03-25T21:10:10.138Z,11.73
2019-03-25T21:18:48.446Z,12.80
2019-03-25T21:21:29.211Z,11.70
2019-03-25T21:24:10.042Z,13.53
2019-03-25T21:26:50.764Z,12.43
2019-03-25T21:29:31.411Z,12.68
2019-03-25T21:32:12.100Z,13.38
2019-03-25T21:34:52.908Z,13.90
2019-03-25T21:37:33.576Z,14.77
2019-03-25T21:40:14.331Z,14.95
2019-03-25T21:42:56.133Z,14.28
2019-03-25T21:45:37.070Z,12.88
2019-03-25T21:48:17.949Z,15.80
2019-03-25T21:50:58.570Z,14.68
2019-03-25T21:53:39.326Z,13.13
2019-03-25T21:56:19.969Z,12.20
2019-03-25T21:58:49.566Z,13.38
2019-03-25T22:01:37.799Z,15.18
2019-03-25T22:04:26.116Z,14.50
2019-03-25T22:07:14.436Z,15.75
2019-03-25T22:10:21.829Z,15.18
2019-03-25T22:13:10.175Z,16.17
2019-03-25T22:15:58.564Z,13.10
2019-03-25T22:18:47.041Z,15.13
2019-03-25T22:21:35.684Z,14.33
2019-03-25T22:24:23.913Z,14.35
2019-03-25T22:27:12.207Z,14.93
2019-03-25T22:30:00.476Z,14.23
2019-03-25T22:32:48.740Z,17.55
2019-03-25T22:35:37.359Z,15.05
2019-03-25T22:38:25.603Z,13.80
2019-03-25T22:41:13.822Z,13.28
2019-03-25T22:44:09.577Z,12.45
2019-03-25T22:46:57.884Z,12.15
2019-03-25T22:49:46.108Z,13.00
2019-03-25T22:52:34.363Z,13.40
2019-03-25T22:55:23.535Z,12.80
2019-03-25T22:58:05.281Z,11.97
2019-03-25T23:00:47.385Z,13.30
2019-03-25T23:03:38.619Z,12.35
2019-03-25T23:06:11.833Z,12.25
2019-03-25T23:08:52.719Z,10.80
2019-03-25T23:11:33.368Z,10.37
2019-03-25T23:14:14.221Z,9.60
2019-03-25T23:16:55.320Z,10.58
2019-03-25T23:19:38.494Z,9.43
2019-03-25T23:22:19.080Z,10.63
2019-03-25T23:25:00.367Z,8.55
2019-03-25T23:27:40.809Z,10.68
2019-03-25T23:30:21.684Z,8.90
2019-03-25T23:33:02.324Z,10.15
2019-03-25T23:35:43.104Z,9.08
2019-03-25T23:38:23.620Z,9.65
2019-03-25T23:41:04.513Z,10.35
2019-03-25T23:43:45.214Z,9.53
2019-03-25T23:46:25.843Z,11.90
2019-03-25T23:49:06.521Z,8.85
2019-03-25T23:51:47.348Z,10.53
2019-03-25T23:54:28.185Z,10.05
2019-03-25T23:57:08.808Z,10.58
2019-03-25T23:59:49.393Z,9.88
